createdAt,value
2022-11-21T00:04:28.256Z,1.29
2022-11-21T00:09:30.305Z,1.27
2022-11-21T00:14:34.283Z,1.28
2022-11-21T00:19:36.137Z,1.33
2022-11-21T00:24:38.024Z,1.38
2022-11-21T00:29:39.851Z,1.41
2022-11-21T00:34:41.690Z,1.42
2022-11-21T00:39:43.545Z,1.44
2022-11-21T00:44:45.364Z,1.51
2022-11-21T00:49:47.263Z,1.55
2022-11-21T00:54:49.114Z,1.56
2022-11-21T00:59:50.921Z,1.55
2022-11-21T01:04:52.746Z,1.54
2022-11-21T01:09:54.550Z,1.51
2022-11-21T01:14:56.353Z,1.53
2022-11-21T01:19:58.171Z,1.52
2022-11-21T01:25:00.004Z,1.51
2022-11-21T01:30:01.834Z,1.51
2022-11-21T01:35:03.747Z,1.51
2022-11-21T01:40:05.861Z,1.57
2022-11-21T01:45:45.200Z,1.62
2022-11-21T01:50:47.334Z,1.74
2022-11-21T01:55:49.923Z,1.81
2022-11-21T02:00:51.895Z,1.87
2022-11-21T02:05:55.519Z,1.96
2022-11-21T02:11:09.567Z,2.07
2022-11-21T02:16:11.722Z,2.29
2022-11-21T02:21:39.473Z,2.77
2022-11-21T02:26:42.367Z,3.30
2022-11-21T02:31:44.263Z,3.70
2022-11-21T02:36:47.569Z,3.91
2022-11-21T02:42:23.437Z,4.09
2022-11-21T02:47:26.313Z,4.16
2022-11-21T02:52:28.083Z,4.25
2022-11-21T02:57:29.868Z,4.31
2022-11-21T03:02:32.100Z,4.37
2022-11-21T03:07:34.565Z,4.39
2022-11-21T03:12:37.675Z,4.45
2022-11-21T03:17:40.045Z,4.48
2022-11-21T03:22:41.865Z,4.56
2022-11-21T03:27:43.611Z,4.58
2022-11-21T03:32:45.368Z,4.59
2022-11-21T03:37:48.859Z,4.60
2022-11-21T03:42:50.613Z,4.58
2022-11-21T03:47:52.410Z,4.59
2022-11-21T03:52:54.204Z,4.61
2022-11-21T03:57:55.956Z,4.64
2022-11-21T04:02:57.764Z,4.66
2022-11-21T04:07:59.551Z,4.69
2022-11-21T04:13:01.377Z,4.70
2022-11-21T04:18:03.159Z,4.74
2022-11-21T04:23:05.422Z,4.78
2022-11-21T04:28:07.565Z,4.82
2022-11-21T04:33:10.857Z,4.88
2022-11-21T04:38:14.200Z,4.90
2022-11-21T04:43:16.036Z,4.93
2022-11-21T04:48:17.846Z,4.96
2022-11-21T04:53:19.660Z,4.97
2022-11-21T04:58:21.518Z,4.97
2022-11-21T05:03:23.381Z,5.00
2022-11-21T05:08:25.217Z,5.04
2022-11-21T05:13:27.001Z,5.11
2022-11-21T05:18:28.802Z,5.18
2022-11-21T05:23:30.902Z,5.22
2022-11-21T05:28:32.702Z,5.24
2022-11-21T05:33:34.530Z,5.27
2022-11-21T05:38:36.300Z,5.29
2022-11-21T05:43:47.153Z,5.28
2022-11-21T05:48:50.097Z,5.27
2022-11-21T05:53:51.951Z,5.27
2022-11-21T05:58:57.816Z,5.29
2022-11-21T06:04:01.720Z,5.32
2022-11-21T06:09:05.118Z,5.27
2022-11-21T06:14:07.065Z,5.42
2022-11-21T06:19:08.863Z,5.45
2022-11-21T06:24:12.284Z,5.45
2022-11-21T06:29:14.172Z,5.47
2022-11-21T06:34:16.010Z,5.45
2022-11-21T06:39:17.812Z,5.38
2022-11-21T06:44:19.846Z,5.22
2022-11-21T06:49:22.393Z,5.07
2022-11-21T06:54:24.287Z,4.97
2022-11-21T06:59:26.101Z,4.96
2022-11-21T07:04:28.171Z,4.68
2022-11-21T07:09:34.163Z,4.57
2022-11-21T07:14:36.092Z,4.44
2022-11-21T07:19:40.853Z,4.33
2022-11-21T07:24:42.999Z,4.24
2022-11-21T07:29:44.863Z,4.18
2022-11-21T07:34:46.732Z,4.19
2022-11-21T07:39:48.641Z,4.21
2022-11-21T07:44:50.451Z,4.21
2022-11-21T07:49:52.317Z,4.07
2022-11-21T07:54:54.353Z,3.82
2022-11-21T07:59:56.436Z,3.79
2022-11-21T08:04:58.485Z,3.74
2022-11-21T08:10:00.336Z,3.63
2022-11-21T08:15:02.367Z,3.57
2022-11-21T08:20:05.319Z,3.55
2022-11-21T08:25:08.573Z,3.50
2022-11-21T08:30:11.964Z,3.54
2022-11-21T08:35:13.773Z,3.48
2022-11-21T08:40:15.803Z,3.33
2022-11-21T08:45:17.594Z,3.19
2022-11-21T08:50:19.861Z,3.14
2022-11-21T08:55:23.177Z,3.00
2022-11-21T09:00:25.162Z,2.97
2022-11-21T09:05:26.961Z,2.85
2022-11-21T09:10:29.606Z,2.76
2022-11-21T09:15:49.970Z,2.66
2022-11-21T09:20:51.812Z,2.47
2022-11-21T09:25:53.653Z,2.46
2022-11-21T09:30:55.465Z,2.50
2022-11-21T09:36:01.143Z,2.48
2022-11-21T09:41:35.916Z,2.48
2022-11-21T09:46:46.994Z,2.46
2022-11-21T09:51:49.955Z,2.54
2022-11-21T09:56:54.078Z,2.60
2022-11-21T10:01:57.062Z,2.55
2022-11-21T10:07:11.432Z,2.43
2022-11-21T10:12:34.552Z,2.45
2022-11-21T10:17:45.029Z,2.45
2022-11-21T10:22:57.762Z,2.60
2022-11-21T10:28:04.642Z,2.62
2022-11-21T10:33:15.343Z,2.73
2022-11-21T10:38:21.916Z,2.84
2022-11-21T10:43:42.364Z,2.70
2022-11-21T10:48:58.966Z,2.74
2022-11-21T10:54:32.528Z,2.68
2022-11-21T10:59:34.398Z,2.57
2022-11-21T11:04:44.598Z,2.61
2022-11-21T11:09:49.580Z,2.66
2022-11-21T11:14:55.920Z,2.73
2022-11-21T11:20:38.627Z,2.78
2022-11-21T11:25:40.459Z,2.91
2022-11-21T11:30:43.596Z,3.01
2022-11-21T11:35:47.088Z,3.05
2022-11-21T11:40:49.219Z,3.07
2022-11-21T11:46:12.675Z,3.02
2022-11-21T11:51:39.881Z,2.93
2022-11-21T11:56:43.588Z,2.92
2022-11-21T12:02:07.482Z,2.91
2022-11-21T12:08:33.192Z,2.90
2022-11-21T12:13:09.770Z,2.98
2022-11-21T12:18:26.073Z,3.08
2022-11-21T12:23:39.923Z,3.08
2022-11-21T12:29:03.612Z,3.16
2022-11-21T12:34:26.479Z,3.26
2022-11-21T12:39:53.457Z,3.30
2022-11-21T12:45:29.088Z,3.35
2022-11-21T12:51:15.499Z,3.36
2022-11-21T12:56:32.953Z,3.42
2022-11-21T13:01:50.533Z,3.46
2022-11-21T13:06:55.706Z,3.50
2022-11-21T13:12:06.072Z,3.56
2022-11-21T13:17:45.060Z,3.63
2022-11-21T13:22:47.621Z,3.68
2022-11-21T13:27:54.003Z,3.66
2022-11-21T13:32:56.949Z,3.70
2022-11-21T13:38:02.439Z,3.67
2022-11-21T13:49:08.849Z,3.65
2022-11-21T13:54:34.268Z,3.62
2022-11-21T13:59:57.184Z,3.58
2022-11-21T14:05:14.285Z,3.57
2022-11-21T14:10:28.044Z,3.62
2022-11-21T14:15:58.794Z,3.57
2022-11-21T14:21:03.497Z,3.47
2022-11-21T14:26:12.887Z,3.45
2022-11-21T14:31:14.947Z,3.34
2022-11-21T14:36:22.450Z,3.27
2022-11-21T14:41:26.425Z,3.29
2022-11-21T14:46:39.541Z,3.30
2022-11-21T14:51:43.991Z,3.30
2022-11-21T14:56:58.871Z,3.26
2022-11-21T15:02:04.359Z,3.17
2022-11-21T15:07:31.636Z,3.13
2022-11-21T15:12:47.938Z,3.15
2022-11-21T15:18:25.783Z,3.11
2022-11-21T15:23:32.961Z,3.06
2022-11-21T15:28:34.831Z,3.00
2022-11-21T15:39:22.468Z,2.83
2022-11-21T15:44:24.365Z,2.76
2022-11-21T15:49:32.915Z,2.76
2022-11-21T15:54:48.491Z,2.77
2022-11-21T15:57:13.882Z,2.98
2022-11-21T15:59:50.495Z,2.76
2022-11-21T16:04:53.543Z,2.72
2022-11-21T16:09:56.096Z,2.74
2022-11-21T16:14:57.934Z,2.78
2022-11-21T16:19:59.731Z,2.83
2022-11-21T16:25:01.667Z,2.90
2022-11-21T16:30:04.270Z,2.98
2022-11-21T16:35:06.584Z,3.02
2022-11-21T16:40:10.099Z,3.02
2022-11-21T16:45:12.063Z,3.08
2022-11-21T16:50:13.972Z,3.13
2022-11-21T16:55:15.798Z,3.15
2022-11-21T17:00:18.287Z,3.19
2022-11-21T17:05:21.029Z,3.17
2022-11-21T17:10:23.541Z,3.13
2022-11-21T17:15:25.409Z,3.11
2022-11-21T17:20:27.544Z,3.11
2022-11-21T17:25:29.910Z,3.10
2022-11-21T17:30:32.974Z,3.13
2022-11-21T17:35:35.733Z,3.08
2022-11-21T17:40:37.609Z,3.09
2022-11-21T17:45:39.419Z,3.05
2022-11-21T17:50:41.289Z,3.06
2022-11-21T17:55:43.107Z,3.10
2022-11-21T18:00:45.086Z,3.11
2022-11-21T18:05:51.486Z,3.10
2022-11-21T18:10:54.082Z,3.11
2022-11-21T18:15:56.459Z,3.08
2022-11-21T18:21:10.229Z,3.04
2022-11-21T18:26:17.699Z,2.89
2022-11-21T18:31:21.710Z,2.88
2022-11-21T18:36:25.779Z,2.86
2022-11-21T18:41:30.394Z,2.77
2022-11-21T18:46:34.720Z,2.68
2022-11-21T18:51:36.856Z,2.62
2022-11-21T18:56:40.494Z,2.59
2022-11-21T19:01:42.484Z,2.53
2022-11-21T19:06:44.420Z,2.48
2022-11-21T19:11:46.298Z,2.44
2022-11-21T19:16:48.115Z,2.45
2022-11-21T19:21:49.991Z,2.49
2022-11-21T19:26:51.856Z,2.52
2022-11-21T19:31:53.727Z,2.52
2022-11-21T19:36:55.615Z,2.54
2022-11-21T19:41:57.536Z,2.56
2022-11-21T19:46:59.362Z,2.57
2022-11-21T19:52:01.209Z,2.59
2022-11-21T19:57:03.088Z,2.68
2022-11-21T20:02:05.034Z,2.66
2022-11-21T20:07:07.980Z,2.66
2022-11-21T20:12:10.062Z,2.74
2022-11-21T20:17:11.981Z,2.78
2022-11-21T20:22:14.286Z,2.85
2022-11-21T20:27:16.121Z,2.91
2022-11-21T20:32:17.956Z,2.96
2022-11-21T20:37:19.743Z,2.91
2022-11-21T20:42:21.748Z,2.90
2022-11-21T20:47:23.636Z,2.89
2022-11-21T20:57:47.638Z,2.93
2022-11-21T21:02:49.721Z,2.98
2022-11-21T21:07:51.887Z,3.02
2022-11-21T21:12:53.800Z,3.04
2022-11-21T21:17:55.670Z,3.09
2022-11-21T21:22:57.563Z,3.12
2022-11-21T21:27:59.372Z,3.16
2022-11-21T21:33:01.688Z,3.19
2022-11-21T21:38:08.667Z,3.21
2022-11-21T21:43:12.020Z,3.22
2022-11-21T21:48:13.833Z,3.20
2022-11-21T21:53:15.670Z,3.22
2022-11-21T21:58:17.476Z,3.26
2022-11-21T22:03:19.329Z,3.30
2022-11-21T22:08:21.135Z,3.26
2022-11-21T22:13:23.106Z,3.22
2022-11-21T22:18:25.052Z,3.17
2022-11-21T22:23:27.319Z,3.18
2022-11-21T22:28:29.918Z,3.20
2022-11-21T22:33:32.294Z,3.30
2022-11-21T22:38:35.131Z,3.38
2022-11-21T22:43:36.978Z,3.41
2022-11-21T22:48:39.524Z,3.43
2022-11-21T22:53:41.610Z,3.36
2022-11-21T22:58:43.884Z,3.36
2022-11-21T23:03:46.854Z,3.36
2022-11-21T23:08:49.351Z,3.28
2022-11-21T23:13:51.585Z,3.31
2022-11-21T23:18:54.899Z,3.34
2022-11-21T23:23:56.731Z,3.40
2022-11-21T23:29:01.297Z,3.46
2022-11-21T23:34:07.022Z,3.51
2022-11-21T23:39:09.462Z,3.55
2022-11-21T23:44:11.285Z,3.59
2022-11-21T23:49:13.071Z,3.61
2022-11-21T23:54:14.866Z,3.63
2022-11-21T23:59:16.646Z,3.65
